ADDS METAR Data INFO
IDs: Format: Raw Decoded Include TAF

Data at: 2247 UTC 11 Dec 2017

KSNL 112235Z AUTO 34012KT 10SM CLR 16/M08 A3012 RMK AO2 T01641083
KSNL 112215Z AUTO 34012KT 10SM CLR 17/M08 A3011 RMK AO2 T01731082
KSNL 112155Z AUTO 35011KT 10SM CLR 18/M09 A3009 RMK AO2 T01781090
KSNL 112135Z AUTO 35011G15KT 10SM CLR 18/M09 A3009 RMK AO2 T01831091
KSNL 112115Z AUTO 36014G18KT 10SM CLR 19/M09 A3009 RMK AO2 T01901095
KSNL 112055Z AUTO 35013G17KT 10SM CLR 20/M10 A3008 RMK AO2 T01981096
KSNL 112035Z AUTO 32014KT 10SM CLR 20/M09 A3008 RMK AO2 T02021094
KSNL 112015Z AUTO 30006KT 10SM CLR 20/M10 A3007 RMK AO2 T02031097
KSNL 111955Z AUTO 30009G15KT 10SM CLR 20/M08 A3008 RMK AO2 T02011082
KSNL 111935Z AUTO 31013KT 10SM CLR 21/M08 A3009 RMK AO2 T02091084
KSNL 111915Z AUTO 30011G18KT 10SM CLR 22/M10 A3009 RMK AO2 T02201100
KSNL 111855Z AUTO 30010G14KT 10SM CLR 22/M10 A3009 RMK AO2 T02151100
KSNL 111835Z AUTO 31010G14KT 10SM CLR 21/M10 A3010 RMK AO2 T02071096
KSNL 111815Z AUTO 29010KT 10SM CLR 21/M10 A3011 RMK AO2 T02051098
KSNL 111755Z AUTO 27004KT 10SM CLR 20/M08 A3012 RMK AO2 T01971084 10197 20009
KSNL 111735Z AUTO 28004KT 10SM CLR 19/M07 A3013 RMK AO2 T01871075
KSNL 111715Z AUTO 31007KT 10SM CLR 18/M07 A3015 RMK AO2 T01841071
KSNL 111655Z AUTO 26004KT 10SM CLR 17/M07 A3016 RMK AO2 T01741068
KSNL 111635Z AUTO 27004KT 10SM CLR 16/M07 A3017 RMK AO2 T01631067
KSNL 111615Z AUTO 32009G15KT 10SM CLR 15/M06 A3018 RMK AO2 T01481060
KSNL 111555Z AUTO 25004KT 10SM CLR 13/M06 A3017 RMK AO2 T01291065
KSNL 111535Z AUTO 25005KT 10SM CLR 12/M08 A3017 RMK AO2 T01201079
KSNL 111515Z AUTO 25003KT 10SM CLR 12/M08 A3017 RMK AO2 T01161080
KSNL 111455Z AUTO 25003KT 10SM CLR 09/M07 A3017 RMK AO2 T00941075
KSNL 111435Z AUTO 24004KT 10SM CLR 08/M07 A3017 RMK AO2 T00761074
KSNL 111415Z AUTO 25004KT 10SM CLR 06/M08 A3017 RMK AO2 T00581079
KSNL 111355Z AUTO 24005KT 10SM CLR 03/M08 A3017 RMK AO2 T00331083
KSNL 111335Z AUTO 23004KT 10SM CLR 04/M09 A3017 RMK AO2 T00361091
KSNL 111315Z AUTO 23005KT 10SM CLR 04/M09 A3017 RMK AO2 T00411090
KSNL 111255Z AUTO 23004KT 10SM CLR 01/M08 A3017 RMK AO2 T00121078
KSNL 111235Z AUTO 23004KT 10SM CLR 02/M08 A3018 RMK AO2 T00231082
KSNL 111215Z AUTO 24005KT 10SM CLR 04/M09 A3019 RMK AO2 T00351087
KSNL 111155Z AUTO 25004KT 10SM CLR 04/M09 A3019 RMK AO2 T00431088 10065 20013
KSNL 111135Z AUTO 23004KT 10SM CLR 04/M09 A3019 RMK AO2 T00421086
KSNL 111115Z AUTO 24005KT 10SM CLR 05/M08 A3019 RMK AO2 T00461085
KSNL 111055Z AUTO 23006KT 10SM CLR 04/M08 A3020 RMK AO2 T00411076
KSNL 111035Z AUTO 24006KT 10SM CLR 04/M08 A3020 RMK AO2 T00401079
KSNL 111015Z AUTO 23006KT 10SM CLR 03/M07 A3020 RMK AO2 T00251074
KSNL 110955Z AUTO 22005KT 10SM CLR 02/M07 A3021 RMK AO2 T00171068
KSNL 110935Z AUTO 22005KT 10SM CLR 03/M07 A3021 RMK AO2 T00281068
KSNL 110915Z AUTO 21003KT 10SM CLR 05/M08 A3021 RMK AO2 T00521081
KSNL 110855Z AUTO 24003KT 10SM CLR 05/M07 A3020 RMK AO2 T00511075
KSNL 110835Z AUTO 00000KT 10SM CLR 05/M07 A3020 RMK AO2 T00451071
KSNL 110815Z AUTO 23003KT 10SM CLR 06/M07 A3022 RMK AO2 T00551075
KSNL 110755Z AUTO 24003KT 10SM CLR 06/M08 A3021 RMK AO2 T00561076
KSNL 110735Z AUTO 25004KT 10SM CLR 06/M07 A3021 RMK AO2 T00601072
KSNL 110715Z AUTO 25005KT 10SM CLR 04/M06 A3023 RMK AO2 T00411059
KSNL 110655Z AUTO 24004KT 10SM CLR 04/M06 A3024 RMK AO2 T00401061
KSNL 110635Z AUTO 24004KT 10SM CLR 03/M06 A3024 RMK AO2 T00301058
KSNL 110615Z AUTO 25004KT 10SM CLR 05/M06 A3024 RMK AO2 T00541062
KSNL 110555Z AUTO 26005KT 10SM CLR 05/M06 A3025 RMK AO2 T00481059 10135 20034 401971030
KSNL 110535Z AUTO 26004KT 10SM CLR 05/M06 A3025 RMK AO2 T00481058
KSNL 110515Z AUTO 24004KT 10SM CLR 04/M06 A3026 RMK AO2 T00401062
KSNL 110455Z AUTO 25004KT 10SM CLR 05/M07 A3026 RMK AO2 T00511066
KSNL 110435Z AUTO 24004KT 10SM CLR 04/M07 A3026 RMK AO2 T00411066
KSNL 110415Z AUTO 24004KT 10SM CLR 04/M07 A3026 RMK AO2 T00391067
KSNL 110355Z AUTO 26004KT 10SM CLR 06/M07 A3026 RMK AO2 T00571073
KSNL 110335Z AUTO 25003KT 10SM CLR 07/M07 A3026 RMK AO2 T00701074
KSNL 110315Z AUTO 23003KT 10SM CLR 05/M07 A3026 RMK AO2 T00531067
KSNL 110255Z AUTO 25004KT 10SM CLR 06/M07 A3026 RMK AO2 T00601069
KSNL 110235Z AUTO 25004KT 10SM CLR 06/M07 A3025 RMK AO2 T00591070
KSNL 110215Z AUTO 25004KT 10SM CLR 08/M07 A3025 RMK AO2 T00801073
KSNL 110155Z AUTO 25005KT 10SM CLR 07/M07 A3026 RMK AO2 T00651070
KSNL 110135Z AUTO 27003KT 10SM CLR 09/M07 A3026 RMK AO2 T00851070
KSNL 110115Z AUTO 26004KT 10SM CLR 09/M07 A3026 RMK AO2 T00921069
KSNL 110055Z AUTO 26004KT 10SM CLR 10/M07 A3026 RMK AO2 T01031071
KSNL 110035Z AUTO 31005KT 10SM CLR 13/M07 A3026 RMK AO2 T01271074
KSNL 110015Z AUTO 32005KT 10SM CLR 13/M08 A3026 RMK AO2 T01341081
KSNL 102355Z AUTO 32006KT 10SM CLR 13/M08 A3025 RMK AO2 T01261078 10197 20122
KSNL 102335Z AUTO 32009KT 10SM CLR 14/M08 A3025 RMK AO2 T01351083
KSNL 102315Z AUTO 30003KT 10SM CLR 15/M08 A3025 RMK AO2 T01541080
KSNL 102255Z AUTO 32004KT 10SM CLR 16/M08 A3025 RMK AO2 T01571079
KSNL 102235Z AUTO 31007KT 10SM CLR 17/M08 A3025 RMK AO2 T01711084
KSNL 102215Z AUTO 30007KT 10SM CLR 18/M09 A3025 RMK AO2 T01811086
KSNL 102155Z AUTO 31011G14KT 10SM CLR 19/M09 A3024 RMK AO2 T01851088
KSNL 102135Z AUTO 31008KT 10SM CLR 19/M09 A3024 RMK AO2 T01901090
KSNL 102115Z AUTO 30011G15KT 10SM CLR 19/M09 A3024 RMK AO2 T01941088
KSNL 102055Z AUTO 30008G15KT 10SM CLR 19/M09 A3024 RMK AO2 T01931094
KSNL 102035Z AUTO 32011G16KT 10SM CLR 19/M09 A3023 RMK AO2 T01941095
KSNL 102015Z AUTO 29009G16KT 10SM CLR 20/M09 A3024 RMK AO2 T01971089
KSNL 101955Z AUTO 29012G17KT 10SM CLR 19/M09 A3024 RMK AO2 T01921088
KSNL 101935Z AUTO 28010KT 10SM CLR 19/M09 A3025 RMK AO2 T01861090
KSNL 101915Z AUTO 29008KT 10SM CLR 18/M08 A3025 RMK AO2 T01841085
KSNL 101855Z AUTO 29007KT 260V330 10SM CLR 18/M08 A3026 RMK AO2 T01761083
KSNL 101835Z AUTO 30006KT 10SM CLR 17/M08 A3027 RMK AO2 T01651082
KSNL 101815Z AUTO 28006KT 10SM CLR 16/M08 A3028 RMK AO2 T01591079
KSNL 101755Z AUTO 29006KT 10SM CLR 15/M07 A3029 RMK AO2 T01521075 10152 20011
KSNL 101735Z AUTO 29008KT 10SM CLR 14/M07 A3030 RMK AO2 T01431072
KSNL 101715Z AUTO 31009KT 10SM CLR 14/M07 A3031 RMK AO2 T01371073
KSNL 101655Z AUTO 30008G15KT 10SM CLR 13/M08 A3031 RMK AO2 T01291076
KSNL 101635Z AUTO 31010G16KT 10SM CLR 12/M08 A3031 RMK AO2 T01241077
KSNL 101615Z AUTO 30010G18KT 10SM CLR 12/M08 A3031 RMK AO2 T01161077
KSNL 101555Z AUTO 30005KT 10SM CLR 10/M06 A3031 RMK AO2 T01021060
KSNL 101535Z AUTO 27008KT 10SM CLR 09/M06 A3031 RMK AO2 T00861064
KSNL 101515Z AUTO 27006KT 10SM CLR 07/M05 A3031 RMK AO2 T00691055
KSNL 101455Z AUTO 27006KT 10SM CLR 05/M06 A3030 RMK AO2 T00541056
KSNL 101435Z AUTO 26006KT 10SM CLR 04/M06 A3029 RMK AO2 T00401060
KSNL 101415Z AUTO 25006KT 10SM CLR 03/M06 A3029 RMK AO2 T00281061
KSNL 101355Z AUTO 24006KT 10SM CLR 02/M06 A3029 RMK AO2 T00161062
KSNL 101335Z AUTO 25006KT 10SM CLR 01/M07 A3029 RMK AO2 T00111066
KSNL 101315Z AUTO 23007KT 10SM CLR 02/M06 A3028 RMK AO2 T00151065
KSNL 101255Z AUTO 23007KT 10SM CLR 01/M06 A3028 RMK AO2 T00131063
KSNL 101235Z AUTO 23007KT 10SM CLR 01/M06 A3028 RMK AO2 T00131061
KSNL 101215Z AUTO 23006KT 10SM CLR 01/M06 A3028 RMK AO2 T00121061
KSNL 101155Z AUTO 23007KT 10SM CLR 01/M06 A3028 RMK AO2 T00131060 10019 21030
KSNL 101135Z AUTO 23007KT 10SM CLR 02/M06 A3028 RMK AO2 T00151057
KSNL 101115Z AUTO 23007KT 10SM CLR 02/M06 A3028 RMK AO2 T00181056
KSNL 101055Z AUTO 24007KT 10SM CLR 02/M05 A3028 RMK AO2 T00171052